Spring Church, Pennsylvania
Current Conditions -  °F | °C
As of 1:15 PM on Monday 26 Jan 2015 (Local Time) from KIDI Reporting Station
Moderate Fog Moderate Fog  
Wind Chill: 17°   Ceiling: 200
Heat Index: 25°   Visibility: 0.25mi
Dew Point: 23°   Wind: 7mph
Humidity: 93%   Direction: 90°E
Pressure: 29.72"   Gusts: NA
Location:  40.61°N, 79.49°W
Report Text: KIDI 261815Z AUTO 09006KT 1/4SM FZFG VV002 M04/M05 A2972 RMK A01
Loading
Personal Weather Stations






























Interactive Weather Map New forecast layout! Learn more

10-Day Weather Forecast

Advertisements
Track Severe Weather on mobile